Time;durP1;ratioP1;P1;durP2;ratioP2;P2;SDS_P1;SDS_P2;PMS_P1;PMS_P2;Temp;Humidity;BMP_temperature;BMP_pressure;BME280_temperature;BME280_humidity;BME280_pressure;Samples;Min_cycle;Max_cycle;Signal;HPM_P1;HPM_P2
2022/03/19 00:00:23;;;;;;;51.30;27.13;;;3.00;99.90;;;;;;2067465;28;20210;-77
2022/03/19 00:01:24;;;;;;;58.50;28.30;;;3.00;99.90;;;;;;2067179;28;20472;-78
2022/03/19 00:02:25;;;;;;;55.50;29.83;;;3.00;99.90;;;;;;2068091;28;20190;-77
2022/03/19 00:03:27;;;;;;;50.77;28.73;;;2.90;99.90;;;;;;2068368;28;20224;-76
2022/03/19 00:04:28;;;;;;;53.70;28.80;;;2.90;99.90;;;;;;2068219;28;20553;-78
2022/03/19 00:05:29;;;;;;;55.20;29.48;;;2.90;99.90;;;;;;2068006;28;20232;-77
2022/03/19 00:06:32;;;;;;;58.10;29.17;;;2.90;99.90;;;;;;2067263;28;20186;-78
2022/03/19 00:07:33;;;;;;;55.65;30.05;;;2.90;99.90;;;;;;2075722;28;20866;-78
2022/03/19 00:08:33;;;;;;;56.47;28.70;;;2.90;99.90;;;;;;2066514;28;20234;-78
2022/03/19 00:09:34;;;;;;;52.00;27.30;;;2.90;99.90;;;;;;2066318;28;20550;-78
2022/03/19 00:10:35;;;;;;;54.83;27.92;;;2.80;99.90;;;;;;2065029;28;20180;-78
2022/03/19 00:11:36;;;;;;;52.47;28.07;;;2.90;99.90;;;;;;2040972;29;20814;-78
2022/03/19 00:12:41;;;;;;;50.13;27.80;;;2.90;99.90;;;;;;2049219;28;20224;-78
2022/03/19 00:13:41;;;;;;;47.75;25.33;;;2.90;99.90;;;;;;2066340;28;20203;-78
2022/03/19 00:14:43;;;;;;;46.53;25.53;;;2.90;99.90;;;;;;2065871;28;20362;-78
2022/03/19 00:15:44;;;;;;;53.20;27.52;;;2.90;99.90;;;;;;2065600;28;20719;-78
2022/03/19 00:16:46;;;;;;;46.97;25.00;;;3.00;99.90;;;;;;2065313;28;20186;-77
2022/03/19 00:17:47;;;;;;;53.65;27.30;;;2.90;99.90;;;;;;2073231;28;20923;-78
2022/03/19 00:18:48;;;;;;;50.53;27.20;;;2.90;99.90;;;;;;2065488;28;20187;-78
2022/03/19 00:19:49;;;;;;;51.03;27.10;;;2.90;99.90;;;;;;2065426;28;20422;-78
2022/03/19 00:20:50;;;;;;;50.47;24.77;;;2.80;99.90;;;;;;2065522;28;20696;-78
2022/03/19 00:21:51;;;;;;;50.63;26.27;;;2.80;99.90;;;;;;2065301;28;20204;-78
2022/03/19 00:22:52;;;;;;;51.67;27.23;;;2.80;99.90;;;;;;2067442;28;20191;-78
2022/03/19 00:23:52;;;;;;;43.10;26.33;;;2.80;99.90;;;;;;2067866;28;20183;-78
2022/03/19 00:24:53;;;;;;;53.37;28.80;;;2.80;99.90;;;;;;2067375;28;20180;-78
2022/03/19 00:25:54;;;;;;;49.10;25.83;;;2.80;99.90;;;;;;2066578;28;20183;-79
2022/03/19 00:26:55;;;;;;;55.83;28.73;;;2.80;99.90;;;;;;2066803;28;20183;-78
2022/03/19 00:27:55;;;;;;;49.17;27.87;;;2.70;99.90;;;;;;2066782;28;20273;-78
2022/03/19 00:28:56;;;;;;;49.50;25.77;;;2.70;99.90;;;;;;2066743;28;20730;-78
2022/03/19 00:29:57;;;;;;;54.70;28.33;;;2.70;99.90;;;;;;2067578;28;20647;-78
2022/03/19 00:30:57;;;;;;;51.87;28.87;;;2.70;99.90;;;;;;2066657;28;20183;-77
2022/03/19 00:31:58;;;;;;;48.93;26.17;;;2.60;99.90;;;;;;2066686;28;20195;-77
2022/03/19 00:32:59;;;;;;;49.50;25.90;;;2.60;99.90;;;;;;2058145;28;20263;-78
2022/03/19 00:33:59;;;;;;;55.67;27.67;;;2.50;99.90;;;;;;2059067;28;20275;-78
2022/03/19 00:35:00;;;;;;;50.93;27.47;;;2.60;99.90;;;;;;2058891;28;20269;-78
2022/03/19 00:36:01;;;;;;;52.90;29.65;;;2.60;99.90;;;;;;2066459;28;20192;-77
2022/03/19 00:37:02;;;;;;;48.93;25.37;;;2.60;99.90;;;;;;2067483;28;20250;-77
2022/03/19 00:38:04;;;;;;;53.30;29.25;;;2.60;99.90;;;;;;2067318;28;20191;-78
2022/03/19 00:39:05;;;;;;;51.53;26.38;;;2.60;99.90;;;;;;2067552;28;20628;-78
2022/03/19 00:40:07;;;;;;;45.67;25.30;;;2.70;99.90;;;;;;2067614;28;20191;-78
2022/03/19 00:41:08;;;;;;;52.85;27.27;;;2.60;99.90;;;;;;2067330;28;20193;-78
2022/03/19 00:42:10;;;;;;;53.50;27.53;;;2.50;99.90;;;;;;2067569;28;20301;-77
2022/03/19 00:43:10;;;;;;;51.92;28.33;;;2.50;99.90;;;;;;2067555;28;20237;-77
2022/03/19 00:44:11;;;;;;;56.63;30.77;;;2.40;99.90;;;;;;2067557;28;20182;-80
2022/03/19 00:45:12;;;;;;;56.07;27.90;;;2.30;99.90;;;;;;2067110;28;20183;-77
2022/03/19 00:46:15;;;;;;;52.70;27.87;;;2.30;99.90;;;;;;2067598;28;20186;-77
2022/03/19 00:47:16;;;;;;;62.10;30.33;;;2.40;99.90;;;;;;2074871;28;20178;-78
2022/03/19 00:48:17;;;;;;;54.23;27.83;;;2.40;99.90;;;;;;2074396;28;20623;-78
2022/03/19 00:49:17;;;;;;;57.85;28.92;;;2.30;99.90;;;;;;2067032;28;20192;-78
2022/03/19 00:50:18;;;;;;;51.93;25.57;;;2.30;99.90;;;;;;2067560;28;20222;-78
2022/03/19 00:51:19;;;;;;;51.17;28.20;;;2.30;99.90;;;;;;2067114;28;20300;-78
2022/03/19 00:52:19;;;;;;;50.93;27.43;;;2.30;99.90;;;;;;2066517;28;20270;-78
2022/03/19 00:53:20;;;;;;;52.20;28.20;;;2.40;99.90;;;;;;2066808;28;20229;-78
2022/03/19 00:54:21;;;;;;;63.10;31.97;;;2.40;99.90;;;;;;2066564;28;20199;-81
2022/03/19 00:55:21;;;;;;;52.33;26.93;;;2.40;99.90;;;;;;2050666;29;20659;-81
2022/03/19 00:56:22;;;;;;;55.40;27.93;;;2.40;99.90;;;;;;2058401;28;20195;-78
2022/03/19 00:57:23;;;;;;;49.77;27.57;;;2.30;99.90;;;;;;2058870;28;20251;-78
2022/03/19 00:58:24;;;;;;;53.73;29.43;;;2.30;99.90;;;;;;2058665;28;20218;-78
2022/03/19 00:59:24;;;;;;;58.87;29.40;;;2.30;99.90;;;;;;2066626;28;20576;-77
2022/03/19 01:00:26;;;;;;;54.70;27.67;;;2.30;99.90;;;;;;2067184;28;20250;-77
2022/03/19 01:01:27;;;;;;;54.08;28.83;;;2.20;99.90;;;;;;2066997;28;20274;-78
2022/03/19 01:02:28;;;;;;;52.83;28.45;;;2.20;99.90;;;;;;2067121;28;20198;-78
2022/03/19 01:03:29;;;;;;;57.07;29.03;;;2.30;99.90;;;;;;2067357;28;20195;-78
2022/03/19 01:04:29;;;;;;;60.67;30.90;;;2.10;99.90;;;;;;2074623;28;20197;-77
2022/03/19 01:05:30;;;;;;;74.83;33.07;;;2.10;99.90;;;;;;2074860;28;20217;-78
2022/03/19 01:06:31;;;;;;;65.67;32.53;;;2.10;99.90;;;;;;2067248;28;20218;-77
2022/03/19 01:07:31;;;;;;;69.97;32.93;;;2.00;99.90;;;;;;2066674;28;20210;-78
2022/03/19 01:08:32;;;;;;;60.17;29.97;;;2.00;99.90;;;;;;2066846;28;20183;-77
2022/03/19 01:09:33;;;;;;;61.10;30.13;;;2.00;99.90;;;;;;2067315;28;20854;-78
2022/03/19 01:10:35;;;;;;;59.87;29.57;;;2.00;99.90;;;;;;2066430;28;20182;-78
2022/03/19 01:11:35;;;;;;;62.42;31.08;;;2.00;99.90;;;;;;2066468;28;20245;-77
2022/03/19 01:12:36;;;;;;;64.80;30.27;;;2.00;99.90;;;;;;2066183;28;20178;-77
2022/03/19 01:13:37;;;;;;;64.47;29.27;;;2.00;99.90;;;;;;2058938;28;20204;-78
2022/03/19 01:14:37;;;;;;;62.73;32.37;;;2.00;99.90;;;;;;2066450;28;20178;-77
2022/03/19 01:15:38;;;;;;;55.53;28.60;;;2.00;99.90;;;;;;2067465;28;20179;-78
2022/03/19 01:16:39;;;;;;;69.80;31.00;;;1.90;99.90;;;;;;2066582;28;20662;-78
2022/03/19 01:17:40;;;;;;;61.03;29.42;;;1.90;99.90;;;;;;2067001;28;20186;-78
2022/03/19 01:18:40;;;;;;;60.47;31.43;;;1.80;99.90;;;;;;2067410;28;20241;-78
2022/03/19 01:19:53;;;;;;;62.93;31.37;;;1.80;99.90;;;;;;2058462;28;20216;-78
2022/03/19 01:20:54;;;;;;;57.90;28.10;;;1.80;99.90;;;;;;2060221;28;20167;-77
2022/03/19 01:21:56;;;;;;;64.87;30.77;;;1.80;99.90;;;;;;2065944;28;20866;-78
2022/03/19 01:22:56;;;;;;;61.22;29.27;;;1.70;99.90;;;;;;2066680;28;20187;-77
2022/03/19 01:23:57;;;;;;;70.60;30.37;;;1.70;99.90;;;;;;2066668;28;20213;-77
2022/03/19 01:25:03;;;;;;;71.77;32.33;;;1.70;99.90;;;;;;2066220;28;20179;-77
2022/03/19 01:26:04;;;;;;;66.63;31.65;;;1.70;99.90;;;;;;2066654;28;20173;-78
2022/03/19 01:27:05;;;;;;;62.73;32.73;;;1.70;99.90;;;;;;2066553;28;20609;-78
2022/03/19 01:28:06;;;;;;;62.97;31.87;;;1.70;99.90;;;;;;2067006;28;20183;-78
2022/03/19 01:29:06;;;;;;;69.47;30.10;;;1.70;99.90;;;;;;2066990;28;20174;-78
2022/03/19 01:30:09;;;;;;;69.23;31.97;;;1.70;99.90;;;;;;2066582;28;20929;-78
2022/03/19 01:31:11;;;;;;;68.53;32.80;;;1.60;99.90;;;;;;2050323;28;20698;-77
2022/03/19 01:32:11;;;;;;;72.30;33.38;;;1.60;99.90;;;;;;2058069;28;20198;-77
2022/03/19 01:33:12;;;;;;;65.13;32.13;;;1.60;99.90;;;;;;2058435;28;20394;-78
2022/03/19 01:34:13;;;;;;;70.70;31.60;;;1.60;99.90;;;;;;2057918;28;20187;-77
2022/03/19 01:35:16;;;;;;;73.47;36.20;;;1.50;99.90;;;;;;2050501;28;20616;-78
2022/03/19 01:36:17;;;;;;;62.35;27.60;;;1.50;99.90;;;;;;2050667;28;20180;-78
2022/03/19 01:37:18;;;;;;;64.65;32.03;;;1.50;99.90;;;;;;2058296;28;20690;-78
2022/03/19 01:38:19;;;;;;;78.80;36.73;;;1.50;99.90;;;;;;2066497;28;20187;-78
2022/03/19 01:39:19;;;;;;;95.17;38.17;;;1.50;99.90;;;;;;2066439;28;20736;-78
2022/03/19 01:40:21;;;;;;;84.83;35.60;;;1.50;99.90;;;;;;2058310;28;20187;-77
2022/03/19 01:41:21;;;;;;;68.18;30.88;;;1.40;99.90;;;;;;2050978;28;20411;-77
2022/03/19 01:42:27;;;;;;;74.50;35.13;;;1.50;99.90;;;;;;2066039;28;20190;-78
2022/03/19 01:43:28;;;;;;;69.55;32.92;;;1.50;99.90;;;;;;2066760;28;20209;-78
2022/03/19 01:44:29;;;;;;;76.90;36.67;;;1.50;99.90;;;;;;2067023;28;20780;-78
2022/03/19 01:45:30;;;;;;;82.97;35.80;;;1.50;99.90;;;;;;2066902;28;20767;-77
2022/03/19 01:46:31;;;;;;;79.53;36.47;;;1.40;99.90;;;;;;2066523;28;20724;-78
2022/03/19 01:47:33;;;;;;;74.67;34.00;;;1.40;99.90;;;;;;2066353;28;20183;-77
2022/03/19 01:48:34;;;;;;;74.82;34.13;;;1.40;99.90;;;;;;2066996;28;20182;-77
2022/03/19 01:49:34;;;;;;;73.73;31.30;;;1.30;99.90;;;;;;2067095;28;20197;-78
2022/03/19 01:50:35;;;;;;;98.17;36.60;;;1.30;99.90;;;;;;2067146;28;20186;-78
2022/03/19 01:51:36;;;;;;;77.80;33.63;;;1.30;99.90;;;;;;2065956;28;20305;-77
2022/03/19 01:52:37;;;;;;;77.43;34.80;;;1.30;99.90;;;;;;2065902;28;20258;-78
2022/03/19 01:53:38;;;;;;;72.78;32.03;;;1.20;99.90;;;;;;2058589;28;20594;-77
2022/03/19 01:54:43;;;;;;;69.50;31.27;;;1.20;99.90;;;;;;2058189;28;20246;-79
2022/03/19 01:55:44;;;;;;;70.07;31.02;;;1.30;99.90;;;;;;2071087;28;20163;-77
2022/03/19 01:56:45;;;;;;;70.60;34.10;;;1.20;99.90;;;;;;2070881;28;20190;-77
2022/03/19 01:57:47;;;;;;;71.67;32.13;;;1.30;99.90;;;;;;2062867;28;20214;-77
2022/03/19 01:58:48;;;;;;;71.05;33.67;;;1.20;99.90;;;;;;2050562;28;20271;-77
2022/03/19 01:59:50;;;;;;;65.03;32.37;;;1.20;99.90;;;;;;2050488;28;20183;-78
2022/03/19 02:00:51;;;;;;;67.97;32.17;;;1.30;99.90;;;;;;2058375;28;20998;-78
2022/03/19 02:01:53;;;;;;;75.68;32.78;;;1.30;99.90;;;;;;2057664;28;20279;-77
2022/03/19 02:02:55;;;;;;;74.28;34.47;;;1.30;99.90;;;;;;2065631;28;20185;-78
2022/03/19 02:03:56;;;;;;;71.63;32.40;;;1.20;99.90;;;;;;2074773;28;20216;-78
2022/03/19 02:05:01;;;;;;;70.97;34.72;;;1.20;99.90;;;;;;2066158;28;20182;-78
2022/03/19 02:06:03;;;;;;;74.95;34.92;;;1.20;99.90;;;;;;2066436;28;20576;-78
2022/03/19 02:07:10;;;;;;;73.13;36.60;;;1.20;99.90;;;;;;2058951;28;20175;-77
2022/03/19 02:08:10;;;;;;;69.93;33.83;;;1.20;99.90;;;;;;2066390;28;20171;-77
2022/03/19 02:09:11;;;;;;;78.10;34.60;;;1.20;99.90;;;;;;2066290;28;20269;-77
2022/03/19 02:10:15;;;;;;;72.47;33.70;;;1.20;99.90;;;;;;2065873;28;20246;-78
2022/03/19 02:11:16;;;;;;;76.93;31.52;;;1.20;99.90;;;;;;2065178;28;20187;-77
2022/03/19 02:12:16;;;;;;;75.70;34.67;;;1.20;99.90;;;;;;2066183;28;20733;-77
2022/03/19 02:13:17;;;;;;;79.03;33.50;;;1.20;99.90;;;;;;2066818;28;20206;-77
2022/03/19 02:14:18;;;;;;;78.40;36.07;;;1.20;99.90;;;;;;2066938;28;20273;-77
2022/03/19 02:15:19;;;;;;;85.63;38.13;;;1.20;99.90;;;;;;2066974;28;20178;-77
2022/03/19 02:16:20;;;;;;;72.83;31.73;;;1.10;99.90;;;;;;2066277;28;20186;-77
2022/03/19 02:17:23;;;;;;;85.03;34.15;;;1.10;99.90;;;;;;2058205;28;20183;-77
2022/03/19 02:18:25;;;;;;;63.45;32.95;;;1.10;99.90;;;;;;2066523;28;20186;-77
2022/03/19 02:19:25;;;;;;;70.97;33.63;;;1.10;99.90;;;;;;2066181;28;20187;-78
2022/03/19 02:20:26;;;;;;;78.83;35.23;;;1.10;99.90;;;;;;2066274;28;20200;-78
2022/03/19 02:21:38;;;;;;;64.47;31.07;;;1.10;99.90;;;;;;2064860;28;20186;-77
2022/03/19 02:22:39;;;;;;;70.18;31.73;;;1.10;99.90;;;;;;2051735;28;20176;-78
2022/03/19 02:26:19;;;;;;;74.10;33.35;;;0.90;99.90;;;;;;2066277;28;20166;-78
2022/03/19 02:27:19;;;;;;;76.80;34.93;;;0.90;99.90;;;;;;2060455;28;20175;-78
2022/03/19 02:28:20;;;;;;;74.40;33.60;;;1.00;99.90;;;;;;2066373;28;20182;-78
2022/03/19 02:29:21;;;;;;;74.40;31.43;;;0.90;99.90;;;;;;2067108;28;20193;-78
2022/03/19 02:30:22;;;;;;;75.13;34.63;;;0.90;99.90;;;;;;2058124;28;20194;-77
2022/03/19 02:31:22;;;;;;;65.73;32.70;;;0.90;99.90;;;;;;2057325;28;20193;-78
2022/03/19 02:32:24;;;;;;;67.90;34.73;;;0.90;99.90;;;;;;2065994;28;20194;-78
2022/03/19 02:33:24;;;;;;;75.55;34.55;;;0.90;99.90;;;;;;2050489;28;20207;-78
2022/03/19 02:34:27;;;;;;;77.00;31.93;;;0.90;99.90;;;;;;2049995;28;20179;-78
2022/03/19 02:35:27;;;;;;;73.40;32.75;;;0.90;99.90;;;;;;2066416;28;20726;-77
2022/03/19 02:36:28;;;;;;;84.20;39.47;;;0.90;99.90;;;;;;2057683;28;20184;-78
2022/03/19 02:37:47;;;;;;;87.50;37.47;;;0.90;99.90;;;;;;2065896;28;20251;-79
2022/03/19 02:38:51;;;;;;;71.63;33.90;;;0.90;99.90;;;;;;2066187;28;20233;-77
2022/03/19 02:39:52;;;;;;;81.80;36.25;;;0.90;99.90;;;;;;2058171;28;20301;-78
2022/03/19 02:40:53;;;;;;;77.97;36.40;;;0.90;99.90;;;;;;2058256;28;20190;-78
2022/03/19 02:41:55;;;;;;;66.70;31.87;;;0.90;99.90;;;;;;2065166;28;20201;-77
2022/03/19 02:42:56;;;;;;;76.15;35.80;;;0.90;99.90;;;;;;2065645;28;20197;-78
2022/03/19 02:43:57;;;;;;;80.22;35.33;;;0.90;99.90;;;;;;2057981;28;20191;-77
2022/03/19 02:44:58;;;;;;;69.83;32.93;;;0.90;99.90;;;;;;2057847;28;20510;-77
2022/03/19 02:45:58;;;;;;;82.53;36.47;;;0.90;99.90;;;;;;2063677;28;20177;-78
2022/03/19 02:47:03;;;;;;;82.60;35.63;;;1.00;99.90;;;;;;2066156;28;20175;-78
2022/03/19 02:48:04;;;;;;;75.20;36.80;;;0.90;99.90;;;;;;2066087;28;20729;-78
2022/03/19 02:49:05;;;;;;;72.13;35.97;;;0.90;99.90;;;;;;2065831;28;20179;-78
2022/03/19 02:50:05;;;;;;;76.43;34.67;;;0.80;99.90;;;;;;2066548;28;20198;-78
2022/03/19 02:51:08;;;;;;;95.17;40.23;;;0.80;99.90;;;;;;2073933;28;20181;-77
2022/03/19 02:52:09;;;;;;;82.53;37.42;;;0.90;99.90;;;;;;2070693;28;20261;-78
2022/03/19 02:53:12;;;;;;;74.23;35.33;;;0.80;99.90;;;;;;2058374;28;20210;-78
2022/03/19 02:54:21;;;;;;;79.50;37.78;;;0.80;99.90;;;;;;2057963;28;20183;-78
2022/03/19 02:55:21;;;;;;;75.15;34.45;;;0.80;99.90;;;;;;2058205;28;20183;-77
2022/03/19 02:56:22;;;;;;;93.47;38.50;;;0.80;99.90;;;;;;2058616;28;20218;-78
2022/03/19 02:57:23;;;;;;;82.20;34.60;;;0.80;99.90;;;;;;2058042;28;20194;-78
2022/03/19 02:58:23;;;;;;;72.27;33.50;;;0.80;99.90;;;;;;2057825;28;20180;-77
2022/03/19 02:59:29;;;;;;;81.87;37.60;;;0.80;99.90;;;;;;2057682;28;20183;-77
2022/03/19 03:00:30;;;;;;;75.72;35.88;;;0.80;99.90;;;;;;2050834;28;20534;-78
2022/03/19 03:01:30;;;;;;;79.22;34.60;;;0.90;99.90;;;;;;2061863;28;20273;-78
2022/03/19 03:02:31;;;;;;;79.30;35.70;;;0.90;99.90;;;;;;2065833;28;20186;-78
2022/03/19 03:03:32;;;;;;;91.77;38.80;;;0.90;99.90;;;;;;2058068;28;20254;-78
2022/03/19 03:04:33;;;;;;;75.17;35.17;;;0.80;99.90;;;;;;2065798;28;20196;-78
2022/03/19 03:05:34;;;;;;;84.47;39.13;;;0.80;99.90;;;;;;2065758;28;20217;-78
2022/03/19 03:06:37;;;;;;;74.53;36.60;;;0.90;99.90;;;;;;2058049;28;20179;-78
2022/03/19 03:07:38;;;;;;;87.45;38.45;;;0.90;99.90;;;;;;2066020;28;20193;-78
2022/03/19 03:08:39;;;;;;;90.67;39.60;;;0.90;99.90;;;;;;2066016;28;20186;-77
2022/03/19 03:09:39;;;;;;;72.40;37.13;;;0.90;99.90;;;;;;2066121;28;20182;-78
2022/03/19 03:10:40;;;;;;;79.67;38.63;;;0.90;99.90;;;;;;2065942;28;20187;-78
2022/03/19 03:11:41;;;;;;;95.50;40.97;;;0.80;99.90;;;;;;2056745;28;20187;-77
2022/03/19 03:12:41;;;;;;;76.93;36.77;;;0.80;99.90;;;;;;2057788;28;20179;-77
2022/03/19 03:13:42;;;;;;;86.57;38.37;;;0.80;99.90;;;;;;2049620;29;20221;-77
2022/03/19 03:14:43;;;;;;;102.17;41.37;;;0.80;99.90;;;;;;2042919;29;20180;-77
2022/03/19 03:15:45;;;;;;;86.20;38.93;;;0.80;99.90;;;;;;2049584;29;20180;-78
2022/03/19 03:16:45;;;;;;;89.13;39.33;;;0.80;99.90;;;;;;2058287;28;20177;-78
2022/03/19 03:17:46;;;;;;;80.97;36.13;;;0.80;99.90;;;;;;2057702;28;20175;-77
2022/03/19 03:18:47;;;;;;;104.93;42.37;;;0.70;99.90;;;;;;2057991;28;20178;-77
2022/03/19 03:19:48;;;;;;;90.50;37.28;;;0.80;99.90;;;;;;2057418;28;20587;-78
2022/03/19 03:20:49;;;;;;;83.00;42.10;;;0.70;99.90;;;;;;2057994;28;20214;-78
2022/03/19 03:21:49;;;;;;;87.83;38.27;;;0.80;99.90;;;;;;2065266;28;20202;-78
2022/03/19 03:22:53;;;;;;;82.80;35.47;;;0.80;99.90;;;;;;2066341;28;20184;-78
2022/03/19 03:23:55;;;;;;;95.97;41.17;;;0.80;99.90;;;;;;2056130;28;20175;-78
2022/03/19 03:24:56;;;;;;;92.15;36.83;;;0.80;99.90;;;;;;2050352;28;20176;-77
2022/03/19 03:25:57;;;;;;;84.95;38.78;;;0.80;99.90;;;;;;2049740;28;20278;-78
2022/03/19 03:26:58;;;;;;;81.03;39.80;;;0.80;99.90;;;;;;2049653;28;20227;-77
2022/03/19 03:27:59;;;;;;;81.20;38.93;;;0.80;99.90;;;;;;2057453;28;20179;-77
2022/03/19 03:28:59;;;;;;;81.17;39.73;;;0.90;99.90;;;;;;2058089;28;20189;-78
2022/03/19 03:30:00;;;;;;;90.67;39.77;;;0.90;99.90;;;;;;2065285;28;20182;-77
2022/03/19 03:31:01;;;;;;;83.23;38.37;;;0.90;99.90;;;;;;2065626;28;20272;-78
2022/03/19 03:32:01;;;;;;;87.53;37.37;;;0.90;99.90;;;;;;2057318;28;20384;-78
2022/03/19 03:33:02;;;;;;;83.27;37.17;;;0.80;99.90;;;;;;2057882;28;20582;-78
2022/03/19 03:34:03;;;;;;;87.80;38.60;;;0.80;99.90;;;;;;2057697;28;20223;-77
2022/03/19 03:35:04;;;;;;;86.43;38.42;;;0.80;99.90;;;;;;2049751;28;20742;-77
2022/03/19 03:36:05;;;;;;;84.93;39.05;;;0.80;99.90;;;;;;2049500;28;20192;-80
2022/03/19 03:37:06;;;;;;;84.57;39.75;;;0.80;99.90;;;;;;2049697;28;20184;-77
2022/03/19 03:38:07;;;;;;;92.53;40.27;;;0.80;99.90;;;;;;2065555;28;20238;-77
2022/03/19 03:39:08;;;;;;;84.73;38.90;;;0.70;99.90;;;;;;2065695;28;20186;-77
2022/03/19 03:40:09;;;;;;;85.70;40.23;;;0.70;99.90;;;;;;2057451;28;20206;-77
2022/03/19 03:41:10;;;;;;;80.28;38.00;;;0.70;99.90;;;;;;2056738;28;20261;-77
2022/03/19 03:42:10;;;;;;;80.50;37.93;;;0.70;99.90;;;;;;2057615;28;20213;-78
2022/03/19 03:43:11;;;;;;;94.63;40.50;;;0.70;99.90;;;;;;2065690;28;20198;-78
2022/03/19 03:44:12;;;;;;;81.97;36.93;;;0.70;99.90;;;;;;2073762;28;20211;-77
2022/03/19 03:45:12;;;;;;;87.10;38.27;;;0.70;99.90;;;;;;2065823;28;20190;-77
2022/03/19 03:46:14;;;;;;;84.50;38.83;;;0.60;99.90;;;;;;2065799;28;20189;-77
2022/03/19 03:47:14;;;;;;;87.45;38.85;;;0.60;99.90;;;;;;2065696;28;20217;-78
2022/03/19 03:48:15;;;;;;;79.33;37.37;;;0.70;99.90;;;;;;2065652;28;20594;-78
2022/03/19 03:49:16;;;;;;;86.83;39.93;;;0.60;99.90;;;;;;2057353;28;20461;-78
2022/03/19 03:50:17;;;;;;;79.07;37.70;;;0.60;99.90;;;;;;2057454;28;20190;-77
2022/03/19 03:51:18;;;;;;;83.25;39.03;;;0.60;99.90;;;;;;2065983;28;20649;-78
2022/03/19 03:52:20;;;;;;;85.13;37.85;;;0.70;99.90;;;;;;2073891;28;20189;-78
2022/03/19 03:53:24;;;;;;;83.20;38.95;;;0.70;99.90;;;;;;2073880;28;20284;-78
2022/03/19 03:54:25;;;;;;;79.88;36.20;;;0.70;99.90;;;;;;2065334;28;20243;-78
2022/03/19 03:55:26;;;;;;;86.57;37.93;;;0.60;99.90;;;;;;2073617;28;20260;-78
2022/03/19 03:56:26;;;;;;;78.50;36.90;;;0.60;99.90;;;;;;2057693;28;20206;-78
2022/03/19 03:57:27;;;;;;;80.77;37.00;;;0.60;99.90;;;;;;2066881;28;20546;-78
2022/03/19 03:58:28;;;;;;;95.53;39.87;;;0.70;99.90;;;;;;2067995;28;20174;-77
2022/03/19 03:59:30;;;;;;;84.87;39.83;;;0.60;99.90;;;;;;2061645;28;20186;-77
2022/03/19 04:00:32;;;;;;;90.05;38.85;;;0.60;99.90;;;;;;2064922;28;20186;-77
2022/03/19 04:01:32;;;;;;;72.93;35.83;;;0.60;99.90;;;;;;2071518;28;20225;-77
2022/03/19 04:02:33;;;;;;;95.40;40.17;;;0.70;99.90;;;;;;2062286;28;20202;-78
2022/03/19 04:03:34;;;;;;;82.07;38.23;;;0.70;99.90;;;;;;2051566;29;20246;-78
2022/03/19 04:04:35;;;;;;;78.68;38.60;;;0.70;99.90;;;;;;2051558;28;20238;-78
2022/03/19 04:05:36;;;;;;;85.63;41.67;;;0.80;99.90;;;;;;2058903;28;20273;-78
2022/03/19 04:06:36;;;;;;;92.80;39.53;;;0.90;99.90;;;;;;2059055;28;20179;-78
2022/03/19 04:07:37;;;;;;;84.17;36.30;;;0.90;99.90;;;;;;2067369;28;20177;-77
2022/03/19 04:08:38;;;;;;;81.17;39.27;;;0.90;99.90;;;;;;2059201;28;20182;-77
2022/03/19 04:09:38;;;;;;;82.00;38.63;;;0.80;99.90;;;;;;2044213;28;20183;-77
2022/03/19 04:10:39;;;;;;;78.60;35.67;;;0.80;99.90;;;;;;2059082;28;20179;-77
2022/03/19 04:11:40;;;;;;;79.00;35.33;;;0.80;99.90;;;;;;2058621;28;20183;-78
2022/03/19 04:12:41;;;;;;;83.43;39.20;;;0.80;99.90;;;;;;2067033;28;20178;-77
2022/03/19 04:13:41;;;;;;;88.50;39.13;;;0.80;99.90;;;;;;2058761;28;20215;-78
2022/03/19 04:14:42;;;;;;;87.10;36.70;;;0.80;99.90;;;;;;2050844;29;20204;-78
2022/03/19 04:15:43;;;;;;;92.13;40.33;;;0.70;99.90;;;;;;2058852;28;20178;-77
2022/03/19 04:16:43;;;;;;;99.80;40.60;;;0.70;99.90;;;;;;2059252;28;20194;-78
2022/03/19 04:17:44;;;;;;;101.77;41.33;;;0.70;99.90;;;;;;2067202;28;20170;-78
2022/03/19 04:18:45;;;;;;;86.53;39.28;;;0.70;99.90;;;;;;2067330;28;20174;-77
2022/03/19 04:19:46;;;;;;;85.93;38.97;;;0.70;99.90;;;;;;2058776;28;20593;-78
2022/03/19 04:20:46;;;;;;;87.33;38.10;;;0.70;99.90;;;;;;2058917;28;20234;-77
2022/03/19 04:21:47;;;;;;;84.67;41.33;;;0.70;99.90;;;;;;2058361;28;20203;-77
2022/03/19 04:22:48;;;;;;;96.03;41.13;;;0.80;99.90;;;;;;2066671;28;20648;-78
2022/03/19 04:23:49;;;;;;;83.05;39.97;;;0.70;99.90;;;;;;2067017;28;20178;-78
2022/03/19 04:24:50;;;;;;;88.03;40.43;;;0.70;99.90;;;;;;2067257;28;20631;-78
2022/03/19 04:25:50;;;;;;;104.00;43.10;;;0.80;99.90;;;;;;2058976;28;20182;-78
2022/03/19 04:26:51;;;;;;;88.87;39.83;;;0.80;99.90;;;;;;2058914;28;20171;-78
2022/03/19 04:27:55;;;;;;;89.20;41.20;;;0.70;99.90;;;;;;2066862;28;20191;-77
2022/03/19 04:28:55;;;;;;;85.57;40.85;;;0.70;99.90;;;;;;2051061;28;20659;-77
2022/03/19 04:29:56;;;;;;;81.60;37.97;;;0.80;99.90;;;;;;2058594;28;20279;-78
2022/03/19 04:30:56;;;;;;;88.30;40.63;;;0.70;99.90;;;;;;2059193;28;20175;-78
2022/03/19 04:31:57;;;;;;;91.37;39.17;;;0.80;99.90;;;;;;2050581;29;20196;-78
2022/03/19 04:33:01;;;;;;;95.70;42.73;;;0.70;99.90;;;;;;2059111;28;20187;-78
2022/03/19 04:34:02;;;;;;;92.05;41.85;;;0.70;99.90;;;;;;2067118;28;20264;-77
2022/03/19 04:36:29;;;;;;;88.67;40.70;;;0.80;99.90;;;;;;2059037;28;20183;-77
2022/03/19 04:36:30;;;;;;;77.15;36.47;;;0.80;99.90;;;;;;2054105;28;20410;-78
2022/03/19 04:37:31;;;;;;;94.65;39.75;;;0.90;99.90;;;;;;2054283;28;20677;-77
2022/03/19 04:38:31;;;;;;;85.10;38.07;;;0.80;99.90;;;;;;2056375;28;20418;-78
2022/03/19 04:39:32;;;;;;;78.43;37.83;;;0.90;99.90;;;;;;2059316;28;20209;-77
2022/03/19 04:40:33;;;;;;;81.00;40.80;;;0.90;99.90;;;;;;2067238;28;20201;-78
2022/03/19 04:41:36;;;;;;;90.65;42.72;;;0.90;99.90;;;;;;2066363;28;20205;-77
2022/03/19 04:42:37;;;;;;;100.82;44.95;;;1.00;99.90;;;;;;2067407;28;20190;-78
2022/03/19 04:43:38;;;;;;;92.57;41.80;;;1.00;99.90;;;;;;2066712;28;20203;-78
2022/03/19 04:44:39;;;;;;;88.10;40.63;;;1.00;99.90;;;;;;2066809;28;20781;-78
2022/03/19 04:45:41;;;;;;;78.27;39.50;;;0.90;99.90;;;;;;2067144;28;20182;-78
2022/03/19 04:46:42;;;;;;;93.25;42.80;;;0.90;99.90;;;;;;2066721;28;20205;-78
2022/03/19 04:47:43;;;;;;;81.68;36.80;;;0.80;99.90;;;;;;2059281;28;20215;-77
2022/03/19 04:48:45;;;;;;;93.90;39.33;;;0.80;99.90;;;;;;2058631;28;20662;-78
2022/03/19 04:49:46;;;;;;;86.15;40.60;;;0.80;99.90;;;;;;2066883;28;20185;-78
2022/03/19 04:50:48;;;;;;;92.90;39.77;;;0.80;99.90;;;;;;2058800;28;20586;-77
2022/03/19 04:51:49;;;;;;;99.05;41.13;;;0.80;99.90;;;;;;2058824;28;20171;-78
2022/03/19 04:52:50;;;;;;;105.18;45.00;;;0.70;99.90;;;;;;2066805;28;20190;-77
2022/03/19 04:53:51;;;;;;;85.38;40.15;;;0.70;99.90;;;;;;2058885;28;20186;-78
2022/03/19 04:54:53;;;;;;;88.90;39.63;;;0.70;99.90;;;;;;2066560;28;20197;-77
2022/03/19 04:55:53;;;;;;;87.20;42.67;;;0.70;99.90;;;;;;2075263;28;20336;-80
2022/03/19 04:56:54;;;;;;;91.53;40.93;;;0.60;99.90;;;;;;2075599;28;20196;-77
2022/03/19 04:57:55;;;;;;;100.23;43.37;;;0.60;99.90;;;;;;2067860;28;20187;-78
2022/03/19 04:58:58;;;;;;;85.80;39.73;;;0.60;99.90;;;;;;2067705;28;20194;-78
2022/03/19 04:59:59;;;;;;;102.40;43.13;;;0.50;99.90;;;;;;2059912;28;20195;-78
2022/03/19 05:01:00;;;;;;;109.70;43.93;;;0.60;99.90;;;;;;2061095;28;20194;-77
2022/03/19 05:02:01;;;;;;;101.97;43.15;;;0.50;99.90;;;;;;2067716;28;20664;-78
2022/03/19 05:03:01;;;;;;;101.43;43.67;;;0.50;99.90;;;;;;2059887;28;20194;-77
2022/03/19 05:04:02;;;;;;;89.23;43.07;;;0.60;99.90;;;;;;2060994;28;20704;-78
2022/03/19 05:05:03;;;;;;;85.63;40.77;;;0.60;99.90;;;;;;2068428;28;20189;-78
2022/03/19 05:06:04;;;;;;;95.03;42.08;;;0.70;99.90;;;;;;2068284;28;20221;-77
2022/03/19 05:07:05;;;;;;;95.73;43.07;;;0.70;99.90;;;;;;2068609;28;20179;-77
2022/03/19 05:08:06;;;;;;;100.27;45.10;;;0.70;99.90;;;;;;2067853;28;20180;-78
2022/03/19 05:11:45;;;;;;;93.53;38.83;;;0.70;99.90;;;;;;2075777;28;20161;-77
2022/03/19 05:12:46;;;;;;;99.03;42.43;;;0.60;99.90;;;;;;2073246;28;20177;-77
2022/03/19 05:13:48;;;;;;;99.03;42.78;;;0.60;99.90;;;;;;2067430;28;20197;-78
2022/03/19 05:14:49;;;;;;;91.80;41.05;;;0.60;99.90;;;;;;2059519;28;20387;-77
2022/03/19 05:15:50;;;;;;;96.57;44.77;;;0.50;99.90;;;;;;2066374;28;20182;-78
2022/03/19 05:16:50;;;;;;;99.30;43.70;;;0.60;99.90;;;;;;2066451;28;20178;-78
2022/03/19 05:17:51;;;;;;;114.47;49.80;;;0.60;99.90;;;;;;2066232;28;20476;-78
2022/03/19 05:18:52;;;;;;;92.47;40.80;;;0.70;99.90;;;;;;2058849;28;20186;-78
2022/03/19 05:19:53;;;;;;;92.47;43.23;;;0.70;99.90;;;;;;2060551;28;20206;-78